createdAt,value
2022-10-19T00:01:09.416Z,13.60
2022-10-19T00:03:37.263Z,13.98
2022-10-19T00:06:18.577Z,13.02
2022-10-19T00:08:45.891Z,12.23
2022-10-19T00:11:13.144Z,12.50
2022-10-19T00:13:40.411Z,15.45
2022-10-19T00:16:13.278Z,13.43
2022-10-19T00:18:41.700Z,10.17
2022-10-19T00:21:10.804Z,12.32
2022-10-19T00:23:38.340Z,13.90
2022-10-19T00:26:05.695Z,12.85
2022-10-19T00:28:32.830Z,11.35
2022-10-19T00:31:05.884Z,11.52
2022-10-19T00:33:33.422Z,14.50
2022-10-19T00:36:00.648Z,13.55
2022-10-19T00:38:27.735Z,7.15
2022-10-19T00:40:54.848Z,13.93
2022-10-19T00:43:31.503Z,11.10
2022-10-19T00:45:58.746Z,15.68
2022-10-19T00:48:29.529Z,14.10
2022-10-19T00:50:59.057Z,16.88
2022-10-19T00:53:31.027Z,13.13
2022-10-19T00:56:01.249Z,10.23
2022-10-19T00:58:28.275Z,12.07
2022-10-19T01:00:55.538Z,11.63
2022-10-19T01:03:22.590Z,12.43
2022-10-19T01:05:50.469Z,14.25
2022-10-19T01:08:17.843Z,11.82
2022-10-19T01:11:18.219Z,11.82
2022-10-19T01:13:56.771Z,13.45
2022-10-19T01:16:35.845Z,9.18
2022-10-19T01:19:17.358Z,10.55
2022-10-19T01:22:30.703Z,12.27
2022-10-19T01:25:07.347Z,16.30
2022-10-19T01:27:59.990Z,12.60
2022-10-19T01:31:05.342Z,10.07
2022-10-19T01:33:46.742Z,11.60
2022-10-19T01:36:20.060Z,11.30
2022-10-19T01:38:54.995Z,8.32
2022-10-19T01:41:42.346Z,13.95
2022-10-19T01:44:23.230Z,9.05
2022-10-19T01:46:55.605Z,11.82
2022-10-19T01:49:29.947Z,12.02
2022-10-19T01:52:02.199Z,13.35
2022-10-19T01:54:34.649Z,9.57
2022-10-19T01:57:04.276Z,10.95
2022-10-19T01:59:33.441Z,11.88
2022-10-19T02:02:03.227Z,9.95
2022-10-19T02:04:31.758Z,13.95
2022-10-19T02:06:59.644Z,8.88
2022-10-19T02:09:26.977Z,9.82
2022-10-19T02:11:58.563Z,10.48
2022-10-19T02:14:35.241Z,12.57
2022-10-19T02:17:13.157Z,10.20
2022-10-19T02:19:40.671Z,16.90
2022-10-19T02:22:08.436Z,13.15
2022-10-19T02:24:35.504Z,12.30
2022-10-19T02:27:05.911Z,12.80
2022-10-19T02:29:34.747Z,10.20
2022-10-19T02:32:02.777Z,13.18
2022-10-19T02:34:30.709Z,16.90
2022-10-19T02:36:58.074Z,16.20
2022-10-19T02:39:25.422Z,16.88
2022-10-19T02:41:52.459Z,18.77
2022-10-19T02:44:38.048Z,10.95
2022-10-19T02:47:13.811Z,14.60
2022-10-19T02:49:43.263Z,11.23
2022-10-19T02:52:12.699Z,8.60
2022-10-19T02:54:41.243Z,11.50
2022-10-19T02:57:28.487Z,15.23
2022-10-19T02:59:55.560Z,7.07
2022-10-19T03:02:22.666Z,14.70
2022-10-19T03:04:49.854Z,14.98
2022-10-19T03:07:20.519Z,10.88
2022-10-19T03:09:47.664Z,15.57
2022-10-19T03:12:14.991Z,14.10
2022-10-19T03:14:42.471Z,15.43
2022-10-19T03:17:10.029Z,13.27
2022-10-19T03:19:37.575Z,14.90
2022-10-19T03:22:04.832Z,14.60
2022-10-19T03:24:32.454Z,14.88
2022-10-19T03:26:59.594Z,12.80
2022-10-19T03:29:26.702Z,13.73
2022-10-19T03:31:53.794Z,10.65
2022-10-19T03:34:20.837Z,12.25
2022-10-19T03:36:48.168Z,16.10
2022-10-19T03:39:16.636Z,14.15
2022-10-19T03:41:44.267Z,12.85
2022-10-19T03:44:11.801Z,11.05
2022-10-19T03:46:39.883Z,12.43
2022-10-19T03:49:07.049Z,11.27
2022-10-19T03:51:34.541Z,9.18
2022-10-19T03:54:05.195Z,12.77
2022-10-19T03:56:33.727Z,10.07
2022-10-19T03:59:02.371Z,13.65
2022-10-19T04:01:35.229Z,11.63
2022-10-19T04:04:04.955Z,15.37
2022-10-19T04:06:37.430Z,15.73
2022-10-19T04:09:06.370Z,17.17
2022-10-19T04:11:34.924Z,13.50
2022-10-19T04:14:02.483Z,15.27
2022-10-19T04:16:31.117Z,10.82
2022-10-19T04:18:58.571Z,12.40
2022-10-19T04:21:37.467Z,7.55
2022-10-19T04:24:10.235Z,12.80
2022-10-19T04:26:48.881Z,13.65
2022-10-19T04:29:19.434Z,11.98
2022-10-19T04:31:48.936Z,20.23
2022-10-19T04:34:16.611Z,12.73
2022-10-19T04:36:43.766Z,12.77
2022-10-19T04:39:11.080Z,15.13
2022-10-19T04:41:38.946Z,10.77
2022-10-19T04:44:09.231Z,16.33
2022-10-19T04:46:36.605Z,17.80
2022-10-19T04:49:05.946Z,14.93
2022-10-19T04:51:33.094Z,16.67
2022-10-19T04:54:00.633Z,15.40
2022-10-19T04:56:28.585Z,13.93
2022-10-19T04:58:57.800Z,19.52
2022-10-19T05:01:26.871Z,14.88
2022-10-19T05:06:24.484Z,15.40
2022-10-19T05:08:51.924Z,6.50
2022-10-19T05:11:20.105Z,10.13
2022-10-19T05:13:48.404Z,13.10
2022-10-19T05:16:18.422Z,13.10
2022-10-19T05:18:53.569Z,12.30
2022-10-19T05:21:22.109Z,15.25
2022-10-19T05:23:53.178Z,15.05
2022-10-19T05:26:22.314Z,11.40
2022-10-19T05:28:58.273Z,14.65
2022-10-19T05:31:28.174Z,10.95
2022-10-19T05:33:58.877Z,12.23
2022-10-19T05:36:37.610Z,15.27
2022-10-19T05:39:13.150Z,16.65
2022-10-19T05:41:42.228Z,13.35
2022-10-19T05:44:14.156Z,14.88
2022-10-19T05:46:41.322Z,13.65
2022-10-19T05:49:08.472Z,17.95
2022-10-19T05:51:35.492Z,10.20
2022-10-19T05:54:02.600Z,14.73
2022-10-19T05:56:30.973Z,12.00
2022-10-19T05:58:59.657Z,9.30
2022-10-19T06:01:28.506Z,11.13
2022-10-19T06:03:57.487Z,13.63
2022-10-19T06:06:25.177Z,15.05
2022-10-19T06:08:54.403Z,11.73
2022-10-19T06:11:24.358Z,11.18
2022-10-19T06:13:54.109Z,14.90
2022-10-19T06:16:24.309Z,12.27
2022-10-19T06:18:52.705Z,16.52
2022-10-19T06:21:22.362Z,11.13
2022-10-19T06:23:54.046Z,12.05
2022-10-19T06:26:21.536Z,13.90
2022-10-19T06:28:50.014Z,12.35
2022-10-19T06:31:17.652Z,11.23
2022-10-19T06:33:48.599Z,16.45
2022-10-19T06:36:23.037Z,13.38
2022-10-19T06:38:51.713Z,13.43
2022-10-19T06:41:19.165Z,16.92
2022-10-19T06:43:50.686Z,14.70
2022-10-19T06:46:20.840Z,13.32
2022-10-19T06:48:56.253Z,13.35
2022-10-19T06:51:25.952Z,9.75
2022-10-19T06:53:56.657Z,13.38
2022-10-19T06:56:26.003Z,10.15
2022-10-19T06:58:53.631Z,9.95
2022-10-19T07:01:21.341Z,10.80
2022-10-19T07:03:48.541Z,10.95
2022-10-19T07:06:15.575Z,16.13
2022-10-19T07:08:43.376Z,12.50
2022-10-19T07:11:15.068Z,11.32
2022-10-19T07:13:42.104Z,13.07
2022-10-19T07:16:16.003Z,15.20
2022-10-19T07:18:47.488Z,12.20
2022-10-19T07:21:17.036Z,11.32
2022-10-19T07:23:45.891Z,12.50
2022-10-19T07:26:26.785Z,11.27
2022-10-19T07:28:56.466Z,12.65
2022-10-19T07:31:25.239Z,15.90
2022-10-19T07:33:57.406Z,16.23
2022-10-19T07:36:25.384Z,11.68
2022-10-19T07:38:52.832Z,8.23
2022-10-19T07:41:22.521Z,14.23
2022-10-19T07:43:50.732Z,12.45
2022-10-19T07:46:20.501Z,13.05
2022-10-19T07:48:48.337Z,16.08
2022-10-19T07:51:17.317Z,13.68
2022-10-19T07:53:45.255Z,9.40
2022-10-19T07:56:20.736Z,13.32
2022-10-19T07:58:49.410Z,11.10
2022-10-19T08:01:24.890Z,11.88
2022-10-19T08:06:41.034Z,15.68
2022-10-19T08:09:08.411Z,17.15
2022-10-19T08:11:36.676Z,14.75
2022-10-19T08:14:04.595Z,12.93
2022-10-19T08:16:37.684Z,14.55
2022-10-19T08:19:08.377Z,10.73
2022-10-19T08:21:38.171Z,13.10
2022-10-19T08:24:06.367Z,15.50
2022-10-19T08:26:38.010Z,13.88
2022-10-19T08:29:14.488Z,9.15
2022-10-19T08:31:43.587Z,12.20
2022-10-19T08:34:12.214Z,12.27
2022-10-19T08:36:39.295Z,11.23
2022-10-19T08:39:08.514Z,11.88
2022-10-19T08:41:41.695Z,12.93
2022-10-19T08:44:36.521Z,12.88
2022-10-19T08:47:12.929Z,10.82
2022-10-19T08:49:42.061Z,11.52
2022-10-19T08:52:41.076Z,9.90
2022-10-19T08:55:18.197Z,13.15
2022-10-19T08:57:50.359Z,7.93
2022-10-19T09:00:46.780Z,11.95
2022-10-19T09:03:55.329Z,10.02
2022-10-19T09:07:08.108Z,9.70
2022-10-19T09:09:38.555Z,91.88
2022-10-19T09:12:08.143Z,71.13
2022-10-19T09:14:41.260Z,39.53
2022-10-19T09:17:19.297Z,30.00
2022-10-19T09:19:46.357Z,39.90
2022-10-19T09:22:19.367Z,35.72
2022-10-19T09:24:55.842Z,36.05
2022-10-19T09:27:36.144Z,34.25
2022-10-19T09:30:22.774Z,37.50
2022-10-19T09:33:00.703Z,25.17
2022-10-19T09:35:27.848Z,31.65
2022-10-19T09:37:56.237Z,32.35
2022-10-19T09:40:26.501Z,24.77
2022-10-19T09:43:03.737Z,30.15
2022-10-19T09:45:51.103Z,20.27
2022-10-19T09:48:29.294Z,30.27
2022-10-19T09:50:59.667Z,37.92
2022-10-19T09:53:27.918Z,34.30
2022-10-19T09:56:01.261Z,44.38
2022-10-19T09:58:32.995Z,31.25
2022-10-19T10:01:01.959Z,38.58
2022-10-19T10:03:33.106Z,36.30
2022-10-19T10:06:07.457Z,39.75
2022-10-19T10:08:40.131Z,47.90
2022-10-19T10:11:12.024Z,30.93
2022-10-19T10:13:48.260Z,54.50
2022-10-19T10:16:18.133Z,44.38
2022-10-19T10:18:55.520Z,57.88
2022-10-19T10:21:32.445Z,30.17
2022-10-19T10:24:11.478Z,30.15
2022-10-19T10:26:44.699Z,36.40
2022-10-19T10:29:26.871Z,29.95
2022-10-19T10:31:59.214Z,39.83
2022-10-19T10:34:49.786Z,42.67
2022-10-19T10:37:26.471Z,32.83
2022-10-19T10:39:57.864Z,28.60
2022-10-19T10:42:37.382Z,37.85
2022-10-19T10:45:05.747Z,32.08
2022-10-19T10:47:33.176Z,25.77
2022-10-19T10:50:07.652Z,33.13
2022-10-19T10:52:37.079Z,47.72
2022-10-19T10:55:26.877Z,46.67
2022-10-19T10:58:12.292Z,61.65
2022-10-19T11:00:40.675Z,39.58
2022-10-19T11:03:26.944Z,42.38
2022-10-19T11:05:57.942Z,42.58
2022-10-19T11:08:44.065Z,29.42
2022-10-19T11:11:20.097Z,32.00
2022-10-19T11:13:54.347Z,21.67
2022-10-19T11:16:29.207Z,37.47
2022-10-19T11:19:23.281Z,49.53
2022-10-19T11:22:11.679Z,26.55
2022-10-19T11:24:48.642Z,29.08
2022-10-19T11:27:24.789Z,21.88
2022-10-19T11:30:15.439Z,26.67
2022-10-19T11:33:00.935Z,16.40
2022-10-19T11:36:04.375Z,21.92
2022-10-19T11:38:38.850Z,22.60
2022-10-19T11:41:21.164Z,24.25
2022-10-19T11:43:50.983Z,31.02
2022-10-19T11:46:29.982Z,18.17
2022-10-19T11:49:03.555Z,16.10
2022-10-19T11:51:47.450Z,16.95
2022-10-19T11:57:06.406Z,24.88
2022-10-19T12:00:03.667Z,14.68
2022-10-19T12:02:47.052Z,22.80
2022-10-19T12:05:26.685Z,25.08
2022-10-19T12:08:12.600Z,18.02
2022-10-19T12:11:04.586Z,17.77
2022-10-19T12:13:42.732Z,17.40
2022-10-19T12:16:13.686Z,18.90
2022-10-19T12:18:43.900Z,25.80
2022-10-19T12:21:31.586Z,21.95
2022-10-19T12:24:01.670Z,19.75
2022-10-19T12:26:33.217Z,18.75
2022-10-19T12:29:06.878Z,7.20
2022-10-19T12:34:31.618Z,5.75
2022-10-19T12:37:08.952Z,6.80
2022-10-19T12:39:58.746Z,12.45
2022-10-19T12:42:33.176Z,15.95
2022-10-19T12:45:14.994Z,26.58
2022-10-19T12:48:19.261Z,13.35
2022-10-19T12:50:49.176Z,11.23
2022-10-19T12:53:27.595Z,34.60
2022-10-19T12:56:02.436Z,14.80
2022-10-19T12:58:37.077Z,21.60
2022-10-19T13:01:06.521Z,31.67
2022-10-19T13:03:37.454Z,26.35
2022-10-19T13:06:30.824Z,19.73
2022-10-19T13:09:07.516Z,15.70
2022-10-19T13:14:44.842Z,18.67
2022-10-19T13:20:17.107Z,13.07
2022-10-19T13:22:46.713Z,10.82
2022-10-19T13:25:19.895Z,14.50
2022-10-19T13:27:48.930Z,20.52
2022-10-19T13:30:37.620Z,16.75
2022-10-19T13:33:29.646Z,14.88
2022-10-19T13:35:59.677Z,15.75
2022-10-19T13:38:28.206Z,14.35
2022-10-19T13:40:58.543Z,11.40
2022-10-19T13:43:29.109Z,22.02
2022-10-19T13:46:08.468Z,15.32
2022-10-19T13:48:57.634Z,16.35
2022-10-19T13:51:43.392Z,11.90
2022-10-19T13:54:10.691Z,14.40
2022-10-19T13:56:47.989Z,16.98
2022-10-19T13:59:51.877Z,11.98
2022-10-19T14:02:34.511Z,17.98
2022-10-19T14:05:32.860Z,14.05
2022-10-19T14:08:21.224Z,9.50
2022-10-19T14:11:01.199Z,7.53
2022-10-19T14:13:29.546Z,12.52
2022-10-19T14:15:59.025Z,8.95
2022-10-19T14:18:36.934Z,9.43
2022-10-19T14:21:07.913Z,9.93
2022-10-19T14:23:38.400Z,11.70
2022-10-19T14:26:18.932Z,9.73
2022-10-19T14:28:51.566Z,33.10
2022-10-19T14:31:22.205Z,22.58
2022-10-19T14:33:53.227Z,23.92
2022-10-19T14:36:23.914Z,23.25
2022-10-19T14:38:55.268Z,22.35
2022-10-19T14:41:36.412Z,31.15
2022-10-19T14:44:52.674Z,45.40
2022-10-19T14:47:28.426Z,24.90
2022-10-19T14:49:55.721Z,27.52
2022-10-19T14:52:41.626Z,13.95
2022-10-19T14:55:18.162Z,14.85
2022-10-19T14:57:48.295Z,12.57
2022-10-19T15:00:21.603Z,10.35
2022-10-19T15:02:58.432Z,6.65
2022-10-19T15:05:33.766Z,8.80
2022-10-19T15:08:10.333Z,5.97
2022-10-19T15:10:43.533Z,7.05
2022-10-19T15:13:25.560Z,9.10
2022-10-19T15:15:54.706Z,24.27
2022-10-19T15:18:47.775Z,30.90
2022-10-19T15:21:21.276Z,10.45
2022-10-19T15:23:50.818Z,6.50
2022-10-19T15:26:20.148Z,9.75
2022-10-19T15:28:48.100Z,4.15
2022-10-19T15:31:17.461Z,6.57
2022-10-19T15:33:51.011Z,3.15
2022-10-19T15:39:24.513Z,4.13
2022-10-19T15:41:53.038Z,2.70
2022-10-19T15:44:55.768Z,3.70
2022-10-19T15:47:24.971Z,4.03
2022-10-19T15:50:01.499Z,6.05
2022-10-19T15:52:37.847Z,4.20
2022-10-19T15:55:07.348Z,4.85
2022-10-19T15:57:38.651Z,5.00
2022-10-19T16:00:17.565Z,3.80
2022-10-19T16:02:45.275Z,5.70
2022-10-19T16:05:12.669Z,4.40
2022-10-19T16:07:41.546Z,2.47
2022-10-19T16:10:16.779Z,4.88
2022-10-19T16:12:44.467Z,4.65
2022-10-19T16:15:23.414Z,10.25
2022-10-19T16:17:53.192Z,3.72
2022-10-19T16:20:20.740Z,5.30
2022-10-19T16:22:48.928Z,6.68
2022-10-19T16:25:16.545Z,3.47
2022-10-19T16:27:44.009Z,3.25
2022-10-19T16:30:11.878Z,3.83
2022-10-19T16:35:12.785Z,3.05
2022-10-19T16:37:40.058Z,6.47
2022-10-19T16:40:08.026Z,5.32
2022-10-19T16:42:35.790Z,2.85
2022-10-19T16:45:03.546Z,4.63
2022-10-19T16:47:30.821Z,4.55
2022-10-19T16:50:02.584Z,5.97
2022-10-19T16:52:32.426Z,3.00
2022-10-19T16:55:00.866Z,2.92
2022-10-19T16:57:28.379Z,3.95
2022-10-19T16:59:55.700Z,5.85
2022-10-19T17:02:24.821Z,4.00
2022-10-19T17:04:52.226Z,6.15
2022-10-19T17:07:19.760Z,3.30
2022-10-19T17:09:49.803Z,4.18
2022-10-19T17:12:19.922Z,4.22
2022-10-19T17:14:49.527Z,5.18
2022-10-19T17:17:17.947Z,3.08
2022-10-19T17:19:47.083Z,6.03
2022-10-19T17:22:14.476Z,15.30
2022-10-19T17:24:42.197Z,5.45
2022-10-19T17:27:12.496Z,5.40
2022-10-19T17:29:39.898Z,8.25
2022-10-19T17:32:07.482Z,8.40
2022-10-19T17:34:34.802Z,4.90
2022-10-19T17:37:02.014Z,3.20
2022-10-19T17:39:30.270Z,2.60
2022-10-19T17:42:02.357Z,2.47
2022-10-19T17:44:31.536Z,1.75
2022-10-19T17:47:00.024Z,3.75
2022-10-19T17:49:29.541Z,3.83
2022-10-19T17:51:57.011Z,2.47
2022-10-19T17:54:24.515Z,6.28
2022-10-19T17:56:51.943Z,5.55
2022-10-19T17:59:30.276Z,3.97
2022-10-19T18:02:04.025Z,2.57
2022-10-19T18:04:33.182Z,3.80
2022-10-19T18:07:00.669Z,4.43
2022-10-19T18:09:28.097Z,3.75
2022-10-19T18:11:55.505Z,5.80
2022-10-19T18:14:22.994Z,5.45
2022-10-19T18:16:50.981Z,5.60
2022-10-19T18:19:18.670Z,6.38
2022-10-19T18:21:47.941Z,8.23
2022-10-19T18:24:20.517Z,11.75
2022-10-19T18:26:50.243Z,6.25
2022-10-19T18:29:22.127Z,4.13
2022-10-19T18:31:52.173Z,4.25
2022-10-19T18:34:28.633Z,2.42
2022-10-19T18:36:56.416Z,9.15
2022-10-19T18:39:24.061Z,4.05
2022-10-19T18:41:57.534Z,7.30
2022-10-19T18:44:27.855Z,6.50
2022-10-19T18:46:57.539Z,2.63
2022-10-19T18:49:25.337Z,9.18
2022-10-19T18:51:56.845Z,3.90
2022-10-19T18:54:26.821Z,7.88
2022-10-19T18:56:59.280Z,6.07
2022-10-19T18:59:29.569Z,3.17
2022-10-19T19:01:57.013Z,6.00
2022-10-19T19:04:24.623Z,6.70
2022-10-19T19:09:35.629Z,10.13
2022-10-19T19:12:03.070Z,26.00
2022-10-19T19:14:30.488Z,10.27
2022-10-19T19:17:00.853Z,9.40
2022-10-19T19:19:34.243Z,12.10
2022-10-19T19:22:07.868Z,7.57
2022-10-19T19:24:36.467Z,8.98
2022-10-19T19:27:03.973Z,9.52
2022-10-19T19:29:31.470Z,8.43
2022-10-19T19:31:59.217Z,9.02
2022-10-19T19:34:27.351Z,10.68
2022-10-19T19:36:59.169Z,7.63
2022-10-19T19:39:26.670Z,11.30
2022-10-19T19:41:55.916Z,7.22
2022-10-19T19:44:26.949Z,8.45
2022-10-19T19:46:59.415Z,6.70
2022-10-19T19:49:29.830Z,6.43
2022-10-19T19:51:57.854Z,7.65
2022-10-19T19:54:25.827Z,4.00
2022-10-19T19:56:55.752Z,4.75
2022-10-19T19:59:34.492Z,7.35
2022-10-19T20:02:03.014Z,6.25
2022-10-19T20:04:30.632Z,8.00
2022-10-19T20:06:58.242Z,6.45
2022-10-19T20:09:30.142Z,5.82
2022-10-19T20:12:00.097Z,8.35
2022-10-19T20:14:28.030Z,12.98
2022-10-19T20:16:55.560Z,10.38
2022-10-19T20:19:23.619Z,10.85
2022-10-19T20:21:53.239Z,9.73
2022-10-19T20:27:01.476Z,14.35
2022-10-19T20:29:29.103Z,14.00
2022-10-19T20:31:56.555Z,14.10
2022-10-19T20:34:27.112Z,10.30
2022-10-19T20:36:57.345Z,14.27
2022-10-19T20:39:24.788Z,10.85
2022-10-19T20:41:52.191Z,16.77
2022-10-19T20:44:23.346Z,11.75
2022-10-19T20:46:55.492Z,11.20
2022-10-19T20:49:23.273Z,8.02
2022-10-19T20:51:54.584Z,7.47
2022-10-19T20:54:24.308Z,14.25
2022-10-19T20:56:55.417Z,10.65
2022-10-19T20:59:27.623Z,15.98
2022-10-19T21:01:58.708Z,11.63
2022-10-19T21:04:29.055Z,10.52
2022-10-19T21:09:40.199Z,7.47
2022-10-19T21:12:07.599Z,11.35
2022-10-19T21:14:35.069Z,10.40
2022-10-19T21:17:05.633Z,8.40
2022-10-19T21:19:33.014Z,9.65
2022-10-19T21:22:02.850Z,5.68
2022-10-19T21:24:35.315Z,5.68
2022-10-19T21:27:10.284Z,7.15
2022-10-19T21:29:37.891Z,7.03
2022-10-19T21:32:07.422Z,7.45
2022-10-19T21:34:36.873Z,6.57
2022-10-19T21:37:04.802Z,10.02
2022-10-19T21:39:32.203Z,5.50
2022-10-19T21:41:59.459Z,7.63
2022-10-19T21:44:29.086Z,5.47
2022-10-19T21:46:56.506Z,7.82
2022-10-19T21:49:23.802Z,5.35
2022-10-19T21:51:54.457Z,7.35
2022-10-19T21:54:25.379Z,8.40
2022-10-19T21:56:53.634Z,6.07
2022-10-19T21:59:20.978Z,6.00
2022-10-19T22:01:48.558Z,11.88
2022-10-19T22:04:20.832Z,9.00
2022-10-19T22:06:48.215Z,11.82
2022-10-19T22:09:21.457Z,10.57
2022-10-19T22:11:49.114Z,7.35
2022-10-19T22:14:17.257Z,12.23
2022-10-19T22:16:44.929Z,9.98
2022-10-19T22:19:12.383Z,9.70
2022-10-19T22:21:40.069Z,14.00
2022-10-19T22:24:11.394Z,10.30
2022-10-19T22:26:45.409Z,9.38
2022-10-19T22:29:12.619Z,8.20
2022-10-19T22:31:40.163Z,10.65
2022-10-19T22:34:10.410Z,12.30
2022-10-19T22:36:38.222Z,8.55
2022-10-19T22:39:05.883Z,10.45
2022-10-19T22:42:29.475Z,10.32
2022-10-19T22:44:56.559Z,10.05
2022-10-19T22:47:23.898Z,9.38
2022-10-19T22:49:51.102Z,9.77
2022-10-19T22:52:18.171Z,8.07
2022-10-19T22:54:45.249Z,10.52
2022-10-19T22:57:12.667Z,8.25
2022-10-19T22:59:39.767Z,12.80
2022-10-19T23:02:06.969Z,6.25
2022-10-19T23:04:34.283Z,9.73
2022-10-19T23:07:01.427Z,10.95
2022-10-19T23:09:28.603Z,9.38
2022-10-19T23:11:55.731Z,14.07
2022-10-19T23:14:22.894Z,11.75
2022-10-19T23:16:50.037Z,9.95
2022-10-19T23:19:17.187Z,11.38
2022-10-19T23:21:44.320Z,11.10
2022-10-19T23:24:11.418Z,12.07
2022-10-19T23:26:38.576Z,9.85
2022-10-19T23:29:06.137Z,15.98
2022-10-19T23:31:34.072Z,22.05
2022-10-19T23:34:01.154Z,11.55
2022-10-19T23:36:29.640Z,10.73
2022-10-19T23:38:58.668Z,9.23
2022-10-19T23:41:26.017Z,19.00
2022-10-19T23:43:53.341Z,8.60
2022-10-19T23:46:20.570Z,14.75
2022-10-19T23:48:47.829Z,10.18
2022-10-19T23:51:17.845Z,11.82
2022-10-19T23:53:46.455Z,18.25
2022-10-19T23:56:13.487Z,16.30
2022-10-19T23:58:41.117Z,10.82
